Terminal Aerodrome Forecast
Issued by NWS

Home | Current Version | Previous Version | Text Only | Print | Product List | Glossary On
Versions: 1 2 3 4 5 6 7 8 9 10 11 12 13 14
314
FTUS43 KMPX 280520
TAFRWF
TAF
KRWF 280520Z 2806/0106 14009KT P6SM VCSH BKN050 OVC120
     FM280800 15005KT P6SM SCT012 OVC060
     FM281000 10005KT 6SM BR OVC012
     FM281200 34006KT 5SM -DZ BR OVC008
     FM281800 35009KT P6SM OVC015=

USA.gov is the U.S. government's official web portal to all federal, state and local government web resources and services.